sensor_id;sensor_type;location;lat;lon;timestamp;temperature;humidity
40848;DHT22;26570;50.962;5.340;2023-05-02T00:09:08;12.50;99.90
40848;DHT22;26570;50.962;5.340;2023-05-02T00:12:42;12.60;99.90
40848;DHT22;26570;50.962;5.340;2023-05-02T00:19:47;12.60;99.90
40848;DHT22;26570;50.962;5.340;2023-05-02T00:23:06;12.50;99.90
40848;DHT22;26570;50.962;5.340;2023-05-02T00:26:36;12.40;99.90
40848;DHT22;26570;50.962;5.340;2023-05-02T00:30:01;12.60;99.90
40848;DHT22;26570;50.962;5.340;2023-05-02T00:32:54;12.80;99.90
40848;DHT22;26570;50.962;5.340;2023-05-02T00:39:57;12.70;99.90
40848;DHT22;26570;50.962;5.340;2023-05-02T00:46:51;12.50;99.90
40848;DHT22;26570;50.962;5.340;2023-05-02T00:53:44;12.90;99.90
40848;DHT22;26570;50.962;5.340;2023-05-02T01:08:38;13.10;99.90
40848;DHT22;26570;50.962;5.340;2023-05-02T01:15:25;13.00;99.90
40848;DHT22;26570;50.962;5.340;2023-05-02T01:22:13;12.40;99.90
40848;DHT22;26570;50.962;5.340;2023-05-02T01:29:17;12.60;99.90
40848;DHT22;26570;50.962;5.340;2023-05-02T01:32:54;12.60;99.90
40848;DHT22;26570;50.962;5.340;2023-05-02T01:36:38;12.80;99.90
40848;DHT22;26570;50.962;5.340;2023-05-02T01:47:03;12.60;99.90
40848;DHT22;26570;50.962;5.340;2023-05-02T01:50:52;12.70;99.90
40848;DHT22;26570;50.962;5.340;2023-05-02T01:54:13;12.70;99.90
40848;DHT22;26570;50.962;5.340;2023-05-02T01:57:35;12.90;99.90
40848;DHT22;26570;50.962;5.340;2023-05-02T02:01:04;12.90;99.90
40848;DHT22;26570;50.962;5.340;2023-05-02T02:04:28;13.20;99.90
40848;DHT22;26570;50.962;5.340;2023-05-02T02:07:33;13.10;99.90
40848;DHT22;26570;50.962;5.340;2023-05-02T02:10:53;13.00;99.90
40848;DHT22;26570;50.962;5.340;2023-05-02T02:14:41;13.00;99.90
40848;DHT22;26570;50.962;5.340;2023-05-02T02:21:36;13.30;99.90
40848;DHT22;26570;50.962;5.340;2023-05-02T02:24:39;13.10;99.90
40848;DHT22;26570;50.962;5.340;2023-05-02T02:27:59;13.00;99.90
40848;DHT22;26570;50.962;5.340;2023-05-02T02:30:48;12.90;99.90
40848;DHT22;26570;50.962;5.340;2023-05-02T02:34:06;12.90;99.90
40848;DHT22;26570;50.962;5.340;2023-05-02T02:37:32;13.20;99.90
40848;DHT22;26570;50.962;5.340;2023-05-02T02:40:58;13.00;99.90
40848;DHT22;26570;50.962;5.340;2023-05-02T02:49:13;13.30;99.90
40848;DHT22;26570;50.962;5.340;2023-05-02T02:56:02;13.10;99.90
40848;DHT22;26570;50.962;5.340;2023-05-02T02:59:57;13.00;99.90
40848;DHT22;26570;50.962;5.340;2023-05-02T03:07:02;12.60;99.90
40848;DHT22;26570;50.962;5.340;2023-05-02T03:10:28;12.40;99.90
40848;DHT22;26570;50.962;5.340;2023-05-02T03:13:41;12.40;99.90
40848;DHT22;26570;50.962;5.340;2023-05-02T03:17:12;12.40;99.90
40848;DHT22;26570;50.962;5.340;2023-05-02T03:20:49;12.10;99.90
40848;DHT22;26570;50.962;5.340;2023-05-02T03:31:24;12.10;99.90
40848;DHT22;26570;50.962;5.340;2023-05-02T03:35:15;12.00;99.90
40848;DHT22;26570;50.962;5.340;2023-05-02T03:38:33;12.30;99.90
40848;DHT22;26570;50.962;5.340;2023-05-02T03:41:31;12.00;99.90
40848;DHT22;26570;50.962;5.340;2023-05-02T03:49:01;11.90;99.90
40848;DHT22;26570;50.962;5.340;2023-05-02T03:56:29;12.00;99.90
40848;DHT22;26570;50.962;5.340;2023-05-02T03:59:24;12.30;99.90
40848;DHT22;26570;50.962;5.340;2023-05-02T04:02:52;12.30;99.90
40848;DHT22;26570;50.962;5.340;2023-05-02T04:09:09;12.30;99.90
40848;DHT22;26570;50.962;5.340;2023-05-02T04:16:19;12.10;99.90
40848;DHT22;26570;50.962;5.340;2023-05-02T04:27:44;11.80;99.90
40848;DHT22;26570;50.962;5.340;2023-05-02T04:31:00;11.40;99.90
40848;DHT22;26570;50.962;5.340;2023-05-02T04:38:26;11.50;99.90
40848;DHT22;26570;50.962;5.340;2023-05-02T04:45:47;12.00;99.90
40848;DHT22;26570;50.962;5.340;2023-05-02T04:49:13;12.00;99.90
40848;DHT22;26570;50.962;5.340;2023-05-02T04:52:43;12.00;99.90
40848;DHT22;26570;50.962;5.340;2023-05-02T04:56:22;12.00;99.90
40848;DHT22;26570;50.962;5.340;2023-05-02T05:03:57;12.10;99.90
40848;DHT22;26570;50.962;5.340;2023-05-02T05:07:32;12.10;99.90
40848;DHT22;26570;50.962;5.340;2023-05-02T05:14:43;12.20;99.90
40848;DHT22;26570;50.962;5.340;2023-05-02T05:18:03;12.50;99.90
40848;DHT22;26570;50.962;5.340;2023-05-02T05:21:10;12.40;99.90
40848;DHT22;26570;50.962;5.340;2023-05-02T05:24:35;12.00;99.90
40848;DHT22;26570;50.962;5.340;2023-05-02T05:28:22;12.50;99.90
40848;DHT22;26570;50.962;5.340;2023-05-02T05:34:56;12.60;99.90
40848;DHT22;26570;50.962;5.340;2023-05-02T05:38:21;12.50;99.90
40848;DHT22;26570;50.962;5.340;2023-05-02T05:41:39;12.50;99.90
40848;DHT22;26570;50.962;5.340;2023-05-02T05:44:33;12.50;99.90
40848;DHT22;26570;50.962;5.340;2023-05-02T05:48:27;12.70;99.90
40848;DHT22;26570;50.962;5.340;2023-05-02T05:55:20;12.70;99.90
40848;DHT22;26570;50.962;5.340;2023-05-02T05:58:39;13.30;99.90
40848;DHT22;26570;50.962;5.340;2023-05-02T06:01:48;12.90;99.90
40848;DHT22;26570;50.962;5.340;2023-05-02T06:05:20;12.60;99.90
40848;DHT22;26570;50.962;5.340;2023-05-02T06:09:21;12.40;99.90
40848;DHT22;26570;50.962;5.340;2023-05-02T06:16:10;12.40;99.90
40848;DHT22;26570;50.962;5.340;2023-05-02T06:19:41;12.50;99.90
40848;DHT22;26570;50.962;5.340;2023-05-02T06:23:06;12.50;99.90
40848;DHT22;26570;50.962;5.340;2023-05-02T06:26:17;12.60;99.90
40848;DHT22;26570;50.962;5.340;2023-05-02T06:33:41;12.40;99.90
40848;DHT22;26570;50.962;5.340;2023-05-02T06:36:46;12.40;99.90
40848;DHT22;26570;50.962;5.340;2023-05-02T06:39:49;12.30;99.90
40848;DHT22;26570;50.962;5.340;2023-05-02T06:42:53;12.40;99.90
40848;DHT22;26570;50.962;5.340;2023-05-02T06:46:38;12.30;99.90
40848;DHT22;26570;50.962;5.340;2023-05-02T06:50:32;12.30;99.90
40848;DHT22;26570;50.962;5.340;2023-05-02T06:53:38;12.30;99.90
40848;DHT22;26570;50.962;5.340;2023-05-02T06:56:52;12.40;99.90
40848;DHT22;26570;50.962;5.340;2023-05-02T06:59:42;12.80;99.90
40848;DHT22;26570;50.962;5.340;2023-05-02T07:02:58;13.20;99.90
40848;DHT22;26570;50.962;5.340;2023-05-02T07:06:23;13.30;99.90
40848;DHT22;26570;50.962;5.340;2023-05-02T07:13:46;13.60;99.90
40848;DHT22;26570;50.962;5.340;2023-05-02T07:17:31;14.10;99.90
40848;DHT22;26570;50.962;5.340;2023-05-02T07:20:53;14.30;99.90
40848;DHT22;26570;50.962;5.340;2023-05-02T07:24:22;14.20;99.90
40848;DHT22;26570;50.962;5.340;2023-05-02T07:27:14;14.00;99.90
40848;DHT22;26570;50.962;5.340;2023-05-02T07:30:45;14.20;99.90
40848;DHT22;26570;50.962;5.340;2023-05-02T07:34:16;14.30;99.90
40848;DHT22;26570;50.962;5.340;2023-05-02T07:37:43;14.70;99.90
40848;DHT22;26570;50.962;5.340;2023-05-02T07:41:00;16.90;99.90
40848;DHT22;26570;50.962;5.340;2023-05-02T07:44:12;19.60;99.90
40848;DHT22;26570;50.962;5.340;2023-05-02T07:47:05;20.40;99.90
40848;DHT22;26570;50.962;5.340;2023-05-02T07:50:00;20.80;97.60
40848;DHT22;26570;50.962;5.340;2023-05-02T07:53:14;21.70;96.30
40848;DHT22;26570;50.962;5.340;2023-05-02T07:56:26;20.80;95.60
40848;DHT22;26570;50.962;5.340;2023-05-02T07:59:25;19.90;97.80
40848;DHT22;26570;50.962;5.340;2023-05-02T08:02:36;18.50;98.00
40848;DHT22;26570;50.962;5.340;2023-05-02T08:05:41;17.30;99.90
40848;DHT22;26570;50.962;5.340;2023-05-02T08:09:17;16.90;99.90
40848;DHT22;26570;50.962;5.340;2023-05-02T08:12:17;16.70;99.90
40848;DHT22;26570;50.962;5.340;2023-05-02T08:15:34;16.50;99.90
40848;DHT22;26570;50.962;5.340;2023-05-02T08:18:46;17.10;99.90
40848;DHT22;26570;50.962;5.340;2023-05-02T08:21:35;17.60;99.90
40848;DHT22;26570;50.962;5.340;2023-05-02T08:25:12;18.10;98.70
40848;DHT22;26570;50.962;5.340;2023-05-02T08:28:27;19.00;97.90
40848;DHT22;26570;50.962;5.340;2023-05-02T08:31:25;19.10;96.30
40848;DHT22;26570;50.962;5.340;2023-05-02T08:34:15;19.10;97.20
40848;DHT22;26570;50.962;5.340;2023-05-02T08:37:15;19.30;96.00
40848;DHT22;26570;50.962;5.340;2023-05-02T08:40:08;19.50;95.80
40848;DHT22;26570;50.962;5.340;2023-05-02T08:43:00;18.60;96.30
40848;DHT22;26570;50.962;5.340;2023-05-02T08:45:53;17.70;98.40
40848;DHT22;26570;50.962;5.340;2023-05-02T08:48:56;17.50;98.50
40848;DHT22;26570;50.962;5.340;2023-05-02T08:51:48;17.50;99.40
40848;DHT22;26570;50.962;5.340;2023-05-02T08:55:02;17.40;98.60
40848;DHT22;26570;50.962;5.340;2023-05-02T08:57:56;17.30;99.10
40848;DHT22;26570;50.962;5.340;2023-05-02T09:00:56;17.50;98.90
40848;DHT22;26570;50.962;5.340;2023-05-02T09:03:52;17.10;99.30
40848;DHT22;26570;50.962;5.340;2023-05-02T09:06:45;17.40;99.90
40848;DHT22;26570;50.962;5.340;2023-05-02T09:10:01;17.70;99.20
40848;DHT22;26570;50.962;5.340;2023-05-02T09:12:52;17.30;98.90
40848;DHT22;26570;50.962;5.340;2023-05-02T09:15:41;17.60;98.10
40848;DHT22;26570;50.962;5.340;2023-05-02T09:18:39;18.20;98.30
40848;DHT22;26570;50.962;5.340;2023-05-02T09:21:38;18.70;96.60
40848;DHT22;26570;50.962;5.340;2023-05-02T09:24:28;19.20;96.20
40848;DHT22;26570;50.962;5.340;2023-05-02T09:27:17;19.00;96.40
40848;DHT22;26570;50.962;5.340;2023-05-02T09:30:20;18.30;96.70
40848;DHT22;26570;50.962;5.340;2023-05-02T09:33:10;18.20;97.90
40848;DHT22;26570;50.962;5.340;2023-05-02T09:36:00;18.70;97.00
40848;DHT22;26570;50.962;5.340;2023-05-02T09:39:15;19.50;95.90
40848;DHT22;26570;50.962;5.340;2023-05-02T09:42:07;20.10;94.00
40848;DHT22;26570;50.962;5.340;2023-05-02T09:45:04;20.40;93.10
40848;DHT22;26570;50.962;5.340;2023-05-02T09:48:00;19.80;93.80
40848;DHT22;26570;50.962;5.340;2023-05-02T09:50:53;18.90;94.20
40848;DHT22;26570;50.962;5.340;2023-05-02T09:53:44;18.70;95.50
40848;DHT22;26570;50.962;5.340;2023-05-02T09:56:59;18.20;95.50
40848;DHT22;26570;50.962;5.340;2023-05-02T09:59:57;18.20;95.80
40848;DHT22;26570;50.962;5.340;2023-05-02T10:02:50;18.30;95.00
40848;DHT22;26570;50.962;5.340;2023-05-02T10:05:46;18.60;94.60
40848;DHT22;26570;50.962;5.340;2023-05-02T10:08:36;18.10;94.80
40848;DHT22;26570;50.962;5.340;2023-05-02T10:11:26;17.60;96.50
40848;DHT22;26570;50.962;5.340;2023-05-02T10:14:17;17.80;97.00
40848;DHT22;26570;50.962;5.340;2023-05-02T10:17:14;18.20;96.30
40848;DHT22;26570;50.962;5.340;2023-05-02T10:20:31;18.70;94.40
40848;DHT22;26570;50.962;5.340;2023-05-02T10:23:26;19.00;95.10
40848;DHT22;26570;50.962;5.340;2023-05-02T10:26:17;18.90;95.00
40848;DHT22;26570;50.962;5.340;2023-05-02T10:29:09;19.00;94.80
40848;DHT22;26570;50.962;5.340;2023-05-02T10:32:00;18.90;94.30
40848;DHT22;26570;50.962;5.340;2023-05-02T10:34:52;18.90;95.80
40848;DHT22;26570;50.962;5.340;2023-05-02T10:37:43;18.30;95.10
40848;DHT22;26570;50.962;5.340;2023-05-02T10:40:38;17.80;95.10
40848;DHT22;26570;50.962;5.340;2023-05-02T10:43:32;18.10;95.10
40848;DHT22;26570;50.962;5.340;2023-05-02T10:46:35;18.80;94.00
40848;DHT22;26570;50.962;5.340;2023-05-02T10:49:26;18.60;94.30
40848;DHT22;26570;50.962;5.340;2023-05-02T10:52:36;18.60;93.50
40848;DHT22;26570;50.962;5.340;2023-05-02T10:55:35;18.20;94.20
40848;DHT22;26570;50.962;5.340;2023-05-02T10:58:54;18.30;93.70
40848;DHT22;26570;50.962;5.340;2023-05-02T11:02:45;18.80;94.50
40848;DHT22;26570;50.962;5.340;2023-05-02T11:06:04;18.90;93.90
40848;DHT22;26570;50.962;5.340;2023-05-02T11:12:16;18.50;93.90
40848;DHT22;26570;50.962;5.340;2023-05-02T11:18:22;18.40;94.50
40848;DHT22;26570;50.962;5.340;2023-05-02T11:21:31;18.60;94.40
40848;DHT22;26570;50.962;5.340;2023-05-02T11:24:45;19.10;95.10
40848;DHT22;26570;50.962;5.340;2023-05-02T11:30:37;18.60;94.20
40848;DHT22;26570;50.962;5.340;2023-05-02T11:33:28;18.40;94.50
40848;DHT22;26570;50.962;5.340;2023-05-02T11:36:33;18.50;94.50
40848;DHT22;26570;50.962;5.340;2023-05-02T11:39:23;18.50;94.40
40848;DHT22;26570;50.962;5.340;2023-05-02T11:42:32;18.80;94.20
40848;DHT22;26570;50.962;5.340;2023-05-02T11:45:39;19.00;93.40
40848;DHT22;26570;50.962;5.340;2023-05-02T11:48:29;19.30;92.00
40848;DHT22;26570;50.962;5.340;2023-05-02T11:51:22;19.20;92.80
40848;DHT22;26570;50.962;5.340;2023-05-02T11:54:18;19.40;92.30
40848;DHT22;26570;50.962;5.340;2023-05-02T11:57:12;19.40;91.50
40848;DHT22;26570;50.962;5.340;2023-05-02T12:00:08;19.30;92.00
40848;DHT22;26570;50.962;5.340;2023-05-02T12:03:03;19.20;92.00
40848;DHT22;26570;50.962;5.340;2023-05-02T12:05:52;19.50;92.70
40848;DHT22;26570;50.962;5.340;2023-05-02T12:08:43;19.40;90.60
40848;DHT22;26570;50.962;5.340;2023-05-02T12:11:36;19.10;91.50
40848;DHT22;26570;50.962;5.340;2023-05-02T12:14:28;19.20;91.50
40848;DHT22;26570;50.962;5.340;2023-05-02T12:17:20;19.80;90.90
40848;DHT22;26570;50.962;5.340;2023-05-02T12:20:09;20.10;90.40
40848;DHT22;26570;50.962;5.340;2023-05-02T12:22:59;20.60;90.90
40848;DHT22;26570;50.962;5.340;2023-05-02T12:25:49;20.80;89.10
40848;DHT22;26570;50.962;5.340;2023-05-02T12:28:52;19.80;88.80
40848;DHT22;26570;50.962;5.340;2023-05-02T12:31:50;19.30;90.20
40848;DHT22;26570;50.962;5.340;2023-05-02T12:34:39;19.00;90.70
40848;DHT22;26570;50.962;5.340;2023-05-02T12:37:28;18.70;92.70
40848;DHT22;26570;50.962;5.340;2023-05-02T12:40:17;19.00;91.20
40848;DHT22;26570;50.962;5.340;2023-05-02T12:43:05;19.10;90.30
40848;DHT22;26570;50.962;5.340;2023-05-02T12:46:14;19.40;88.20
40848;DHT22;26570;50.962;5.340;2023-05-02T12:49:09;20.00;89.70
40848;DHT22;26570;50.962;5.340;2023-05-02T12:52:05;20.70;88.90
40848;DHT22;26570;50.962;5.340;2023-05-02T12:55:17;20.60;85.80
40848;DHT22;26570;50.962;5.340;2023-05-02T12:58:18;20.20;87.20
40848;DHT22;26570;50.962;5.340;2023-05-02T13:01:12;19.70;89.20
40848;DHT22;26570;50.962;5.340;2023-05-02T13:04:07;19.70;87.70
40848;DHT22;26570;50.962;5.340;2023-05-02T13:07:00;19.20;88.20
40848;DHT22;26570;50.962;5.340;2023-05-02T13:09:55;19.60;88.50
40848;DHT22;26570;50.962;5.340;2023-05-02T13:13:06;20.10;85.90
40848;DHT22;26570;50.962;5.340;2023-05-02T13:15:57;20.40;85.60
40848;DHT22;26570;50.962;5.340;2023-05-02T13:18:51;20.30;84.90
40848;DHT22;26570;50.962;5.340;2023-05-02T13:21:42;20.10;86.20
40848;DHT22;26570;50.962;5.340;2023-05-02T13:24:33;20.40;86.40
40848;DHT22;26570;50.962;5.340;2023-05-02T13:27:31;20.20;84.70
40848;DHT22;26570;50.962;5.340;2023-05-02T13:30:25;19.80;86.00
40848;DHT22;26570;50.962;5.340;2023-05-02T13:33:20;19.80;87.10
40848;DHT22;26570;50.962;5.340;2023-05-02T13:36:14;20.00;87.50
40848;DHT22;26570;50.962;5.340;2023-05-02T13:39:09;20.20;85.60
40848;DHT22;26570;50.962;5.340;2023-05-02T13:42:05;20.30;83.70
40848;DHT22;26570;50.962;5.340;2023-05-02T13:45:11;20.40;84.20
40848;DHT22;26570;50.962;5.340;2023-05-02T13:48:01;20.20;84.00
40848;DHT22;26570;50.962;5.340;2023-05-02T13:50:56;19.70;82.80
40848;DHT22;26570;50.962;5.340;2023-05-02T13:53:47;19.70;84.40
40848;DHT22;26570;50.962;5.340;2023-05-02T13:56:38;19.90;85.90
40848;DHT22;26570;50.962;5.340;2023-05-02T13:59:32;19.50;82.90
40848;DHT22;26570;50.962;5.340;2023-05-02T14:02:26;19.30;83.90
40848;DHT22;26570;50.962;5.340;2023-05-02T14:05:17;19.40;82.60
40848;DHT22;26570;50.962;5.340;2023-05-02T14:08:11;19.80;82.70
40848;DHT22;26570;50.962;5.340;2023-05-02T14:11:06;20.00;82.60
40848;DHT22;26570;50.962;5.340;2023-05-02T14:14:04;19.80;81.50
40848;DHT22;26570;50.962;5.340;2023-05-02T14:16:56;19.50;83.70
40848;DHT22;26570;50.962;5.340;2023-05-02T14:19:56;20.00;84.90
40848;DHT22;26570;50.962;5.340;2023-05-02T14:22:50;20.40;82.30
40848;DHT22;26570;50.962;5.340;2023-05-02T14:25:44;20.50;81.30
40848;DHT22;26570;50.962;5.340;2023-05-02T14:28:32;19.90;84.50
40848;DHT22;26570;50.962;5.340;2023-05-02T14:31:27;19.60;82.60
40848;DHT22;26570;50.962;5.340;2023-05-02T14:34:15;19.70;84.30
40848;DHT22;26570;50.962;5.340;2023-05-02T14:37:06;20.10;83.00
40848;DHT22;26570;50.962;5.340;2023-05-02T14:39:57;20.10;82.20
40848;DHT22;26570;50.962;5.340;2023-05-02T14:42:53;19.90;84.10
40848;DHT22;26570;50.962;5.340;2023-05-02T14:45:44;19.30;87.60
40848;DHT22;26570;50.962;5.340;2023-05-02T14:48:36;19.30;83.80
40848;DHT22;26570;50.962;5.340;2023-05-02T14:51:26;19.40;84.20
40848;DHT22;26570;50.962;5.340;2023-05-02T14:54:18;19.80;83.20
40848;DHT22;26570;50.962;5.340;2023-05-02T14:57:13;19.50;82.90
40848;DHT22;26570;50.962;5.340;2023-05-02T15:00:06;19.30;84.60
40848;DHT22;26570;50.962;5.340;2023-05-02T15:03:02;19.50;83.00
40848;DHT22;26570;50.962;5.340;2023-05-02T15:05:58;19.40;82.20
40848;DHT22;26570;50.962;5.340;2023-05-02T15:08:50;19.50;84.00
40848;DHT22;26570;50.962;5.340;2023-05-02T15:11:41;19.60;84.40
40848;DHT22;26570;50.962;5.340;2023-05-02T15:14:33;19.30;83.00
40848;DHT22;26570;50.962;5.340;2023-05-02T15:17:41;18.90;83.60
40848;DHT22;26570;50.962;5.340;2023-05-02T15:20:29;18.50;84.90
40848;DHT22;26570;50.962;5.340;2023-05-02T15:23:23;18.70;87.00
40848;DHT22;26570;50.962;5.340;2023-05-02T15:26:11;18.70;86.50
40848;DHT22;26570;50.962;5.340;2023-05-02T15:29:06;19.00;86.60
40848;DHT22;26570;50.962;5.340;2023-05-02T15:32:00;19.10;86.10
40848;DHT22;26570;50.962;5.340;2023-05-02T15:34:50;19.00;84.30
40848;DHT22;26570;50.962;5.340;2023-05-02T15:37:57;19.10;85.10
40848;DHT22;26570;50.962;5.340;2023-05-02T15:41:03;19.20;82.30
40848;DHT22;26570;50.962;5.340;2023-05-02T15:43:57;19.20;85.50
40848;DHT22;26570;50.962;5.340;2023-05-02T15:46:49;19.20;84.20
40848;DHT22;26570;50.962;5.340;2023-05-02T15:49:42;19.00;83.90
40848;DHT22;26570;50.962;5.340;2023-05-02T15:52:39;19.00;82.50
40848;DHT22;26570;50.962;5.340;2023-05-02T15:55:30;19.20;83.40
40848;DHT22;26570;50.962;5.340;2023-05-02T15:58:22;19.30;83.50
40848;DHT22;26570;50.962;5.340;2023-05-02T16:01:13;19.00;83.00
40848;DHT22;26570;50.962;5.340;2023-05-02T16:04:06;19.00;84.00
40848;DHT22;26570;50.962;5.340;2023-05-02T16:06:57;19.20;82.40
40848;DHT22;26570;50.962;5.340;2023-05-02T16:09:49;19.20;83.50
40848;DHT22;26570;50.962;5.340;2023-05-02T16:12:43;19.50;81.10
40848;DHT22;26570;50.962;5.340;2023-05-02T16:15:31;19.40;81.10
40848;DHT22;26570;50.962;5.340;2023-05-02T16:18:20;19.30;81.50
40848;DHT22;26570;50.962;5.340;2023-05-02T16:21:30;19.20;82.30
40848;DHT22;26570;50.962;5.340;2023-05-02T16:24:31;19.00;81.90
40848;DHT22;26570;50.962;5.340;2023-05-02T16:27:21;18.90;83.00
40848;DHT22;26570;50.962;5.340;2023-05-02T16:30:11;19.30;83.50
40848;DHT22;26570;50.962;5.340;2023-05-02T16:33:34;19.20;82.90
40848;DHT22;26570;50.962;5.340;2023-05-02T16:36:42;19.10;83.20
40848;DHT22;26570;50.962;5.340;2023-05-02T16:39:28;19.00;83.30
40848;DHT22;26570;50.962;5.340;2023-05-02T16:42:14;18.90;82.20
40848;DHT22;26570;50.962;5.340;2023-05-02T16:44:59;18.70;83.30
40848;DHT22;26570;50.962;5.340;2023-05-02T16:47:46;18.70;83.50
40848;DHT22;26570;50.962;5.340;2023-05-02T16:50:31;18.40;84.40
40848;DHT22;26570;50.962;5.340;2023-05-02T16:53:16;18.50;82.00
40848;DHT22;26570;50.962;5.340;2023-05-02T16:56:02;18.50;83.50
40848;DHT22;26570;50.962;5.340;2023-05-02T16:58:48;18.40;81.80
40848;DHT22;26570;50.962;5.340;2023-05-02T17:01:34;18.20;82.40
40848;DHT22;26570;50.962;5.340;2023-05-02T17:04:19;18.20;83.50
40848;DHT22;26570;50.962;5.340;2023-05-02T17:07:05;18.30;81.80
40848;DHT22;26570;50.962;5.340;2023-05-02T17:09:57;18.10;82.90
40848;DHT22;26570;50.962;5.340;2023-05-02T17:12:43;17.90;82.70
40848;DHT22;26570;50.962;5.340;2023-05-02T17:15:29;18.00;82.10
40848;DHT22;26570;50.962;5.340;2023-05-02T17:18:15;18.00;81.70
40848;DHT22;26570;50.962;5.340;2023-05-02T17:21:00;18.00;83.90
40848;DHT22;26570;50.962;5.340;2023-05-02T17:23:46;18.10;82.70
40848;DHT22;26570;50.962;5.340;2023-05-02T17:26:32;18.10;82.10
40848;DHT22;26570;50.962;5.340;2023-05-02T17:29:17;17.90;81.70
40848;DHT22;26570;50.962;5.340;2023-05-02T17:32:03;18.00;83.60
40848;DHT22;26570;50.962;5.340;2023-05-02T17:34:49;18.00;85.10
40848;DHT22;26570;50.962;5.340;2023-05-02T17:37:34;17.90;84.40
40848;DHT22;26570;50.962;5.340;2023-05-02T17:40:22;17.90;83.10
40848;DHT22;26570;50.962;5.340;2023-05-02T17:43:07;17.70;84.90
40848;DHT22;26570;50.962;5.340;2023-05-02T17:45:52;17.60;84.60
40848;DHT22;26570;50.962;5.340;2023-05-02T17:48:42;17.60;83.70
40848;DHT22;26570;50.962;5.340;2023-05-02T17:51:27;17.50;85.10
40848;DHT22;26570;50.962;5.340;2023-05-02T17:54:13;17.40;84.10
40848;DHT22;26570;50.962;5.340;2023-05-02T17:57:02;17.10;84.40
40848;DHT22;26570;50.962;5.340;2023-05-02T17:59:49;16.80;85.50
40848;DHT22;26570;50.962;5.340;2023-05-02T18:02:37;16.90;84.90
40848;DHT22;26570;50.962;5.340;2023-05-02T18:05:24;16.50;86.00
40848;DHT22;26570;50.962;5.340;2023-05-02T18:08:12;16.40;85.90
40848;DHT22;26570;50.962;5.340;2023-05-02T18:10:58;16.40;87.00
40848;DHT22;26570;50.962;5.340;2023-05-02T18:13:44;16.40;85.60
40848;DHT22;26570;50.962;5.340;2023-05-02T18:16:29;16.20;85.70
40848;DHT22;26570;50.962;5.340;2023-05-02T18:19:15;16.10;87.60
40848;DHT22;26570;50.962;5.340;2023-05-02T18:22:01;16.00;87.80
40848;DHT22;26570;50.962;5.340;2023-05-02T18:24:47;15.80;89.70
40848;DHT22;26570;50.962;5.340;2023-05-02T18:27:32;15.70;88.70
40848;DHT22;26570;50.962;5.340;2023-05-02T18:30:18;15.60;90.00
40848;DHT22;26570;50.962;5.340;2023-05-02T18:33:04;15.40;90.40
40848;DHT22;26570;50.962;5.340;2023-05-02T18:35:50;15.30;90.60
40848;DHT22;26570;50.962;5.340;2023-05-02T18:38:41;15.20;91.20
40848;DHT22;26570;50.962;5.340;2023-05-02T18:41:29;15.10;91.90
40848;DHT22;26570;50.962;5.340;2023-05-02T18:44:15;15.00;91.70
40848;DHT22;26570;50.962;5.340;2023-05-02T18:47:00;14.80;92.30
40848;DHT22;26570;50.962;5.340;2023-05-02T18:49:46;14.60;93.20
40848;DHT22;26570;50.962;5.340;2023-05-02T18:52:32;14.50;92.90
40848;DHT22;26570;50.962;5.340;2023-05-02T18:55:19;14.40;92.80
40848;DHT22;26570;50.962;5.340;2023-05-02T18:58:05;14.30;93.30
40848;DHT22;26570;50.962;5.340;2023-05-02T19:00:53;14.00;93.40
40848;DHT22;26570;50.962;5.340;2023-05-02T19:03:39;14.00;94.10
40848;DHT22;26570;50.962;5.340;2023-05-02T19:06:25;13.80;94.30
40848;DHT22;26570;50.962;5.340;2023-05-02T19:09:14;13.70;94.70
40848;DHT22;26570;50.962;5.340;2023-05-02T19:12:26;13.60;94.60
40848;DHT22;26570;50.962;5.340;2023-05-02T19:15:11;13.50;95.30
40848;DHT22;26570;50.962;5.340;2023-05-02T19:17:57;13.30;96.00
40848;DHT22;26570;50.962;5.340;2023-05-02T19:20:43;13.20;96.60
40848;DHT22;26570;50.962;5.340;2023-05-02T19:23:30;13.10;96.50
40848;DHT22;26570;50.962;5.340;2023-05-02T19:26:16;13.00;97.00
40848;DHT22;26570;50.962;5.340;2023-05-02T19:29:21;12.90;97.20
40848;DHT22;26570;50.962;5.340;2023-05-02T19:32:16;12.70;98.40
40848;DHT22;26570;50.962;5.340;2023-05-02T19:35:02;12.60;98.00
40848;DHT22;26570;50.962;5.340;2023-05-02T19:37:48;12.70;97.90
40848;DHT22;26570;50.962;5.340;2023-05-02T19:40:36;12.50;98.30
40848;DHT22;26570;50.962;5.340;2023-05-02T19:43:22;12.40;97.90
40848;DHT22;26570;50.962;5.340;2023-05-02T19:46:08;12.40;98.50
40848;DHT22;26570;50.962;5.340;2023-05-02T19:48:55;12.10;99.20
40848;DHT22;26570;50.962;5.340;2023-05-02T19:51:41;12.10;99.40
40848;DHT22;26570;50.962;5.340;2023-05-02T19:54:28;12.10;99.20
40848;DHT22;26570;50.962;5.340;2023-05-02T19:57:15;11.80;99.90
40848;DHT22;26570;50.962;5.340;2023-05-02T20:00:02;11.80;99.90
40848;DHT22;26570;50.962;5.340;2023-05-02T20:02:49;11.60;99.90
40848;DHT22;26570;50.962;5.340;2023-05-02T20:05:35;11.60;99.90
40848;DHT22;26570;50.962;5.340;2023-05-02T20:08:22;11.50;99.90
40848;DHT22;26570;50.962;5.340;2023-05-02T20:11:12;11.40;99.90
40848;DHT22;26570;50.962;5.340;2023-05-02T20:13:58;11.40;99.90
40848;DHT22;26570;50.962;5.340;2023-05-02T20:16:45;11.30;99.90
40848;DHT22;26570;50.962;5.340;2023-05-02T20:19:32;11.30;99.90
40848;DHT22;26570;50.962;5.340;2023-05-02T20:22:18;11.20;99.90
40848;DHT22;26570;50.962;5.340;2023-05-02T20:25:06;11.20;99.90
40848;DHT22;26570;50.962;5.340;2023-05-02T20:27:53;11.30;99.90
40848;DHT22;26570;50.962;5.340;2023-05-02T20:30:40;11.30;99.90
40848;DHT22;26570;50.962;5.340;2023-05-02T20:33:28;11.20;99.90
40848;DHT22;26570;50.962;5.340;2023-05-02T20:36:14;11.00;99.90
40848;DHT22;26570;50.962;5.340;2023-05-02T20:39:02;11.10;99.90
40848;DHT22;26570;50.962;5.340;2023-05-02T20:41:41;10.90;99.90
40848;DHT22;26570;50.962;5.340;2023-05-02T20:44:28;11.00;99.90
40848;DHT22;26570;50.962;5.340;2023-05-02T20:47:18;11.00;99.90
40848;DHT22;26570;50.962;5.340;2023-05-02T20:50:05;10.80;99.90
40848;DHT22;26570;50.962;5.340;2023-05-02T20:52:53;10.70;99.90
40848;DHT22;26570;50.962;5.340;2023-05-02T20:55:41;10.70;99.90
40848;DHT22;26570;50.962;5.340;2023-05-02T20:58:27;10.70;99.90
40848;DHT22;26570;50.962;5.340;2023-05-02T21:01:14;10.60;99.90
40848;DHT22;26570;50.962;5.340;2023-05-02T21:04:00;10.40;99.90
40848;DHT22;26570;50.962;5.340;2023-05-02T21:06:49;10.50;99.90
40848;DHT22;26570;50.962;5.340;2023-05-02T21:09:37;10.40;99.90
40848;DHT22;26570;50.962;5.340;2023-05-02T21:12:24;10.30;99.90
40848;DHT22;26570;50.962;5.340;2023-05-02T21:15:10;10.20;99.90
40848;DHT22;26570;50.962;5.340;2023-05-02T21:18:00;10.20;99.90
40848;DHT22;26570;50.962;5.340;2023-05-02T21:20:48;10.20;99.90
40848;DHT22;26570;50.962;5.340;2023-05-02T21:23:34;10.10;99.90